Time;durP1;ratioP1;P1;durP2;ratioP2;P2;SDS_P1;SDS_P2;PMS_P1;PMS_P2;Temp;Humidity;BMP_temperature;BMP_pressure;BME280_temperature;BME280_humidity;BME280_pressure;Samples;Min_cycle;Max_cycle;Signal;HPM_P1;HPM_P2
2021/04/07 00:02:42;;;;;;;0.20;0.20;;;;;;;-0.03;86.25;100776.88;10453502;28;20028;-71
2021/04/07 00:07:44;;;;;;;0.13;0.13;;;;;;;-0.04;86.07;100783.88;10492926;28;20024;-71
2021/04/07 00:12:44;;;;;;;0.20;0.20;;;;;;;-0.09;86.37;100783.34;10469234;28;20017;-72
2021/04/07 00:17:45;;;;;;;0.20;0.20;;;;;;;-0.09;86.99;100785.09;10455723;28;20021;-72
2021/04/07 00:22:47;;;;;;;0.20;0.20;;;;;;;-0.09;87.08;100785.97;10492264;28;20029;-70
2021/04/07 00:28:05;;;;;;;0.10;0.10;;;;;;;-0.05;87.54;100779.59;10495090;28;20382;-71
2021/04/07 00:33:06;;;;;;;0.20;0.20;;;;;;;-0.05;87.91;100773.53;10473388;28;20029;-71
2021/04/07 00:38:06;;;;;;;0.20;0.20;;;;;;;-0.08;87.99;100773.72;10468710;28;20482;-72
2021/04/07 00:43:07;;;;;;;0.20;0.20;;;;;;;-0.12;88.22;100780.03;10452910;28;20029;-72
2021/04/07 00:48:08;;;;;;;0.20;0.20;;;;;;;-0.11;89.07;100779.97;10451618;28;20063;-72
2021/04/07 00:53:08;;;;;;;0.20;0.20;;;;;;;0.06;88.65;100784.19;10440597;28;20013;-71
2021/04/07 00:58:09;;;;;;;0.10;0.10;;;;;;;0.17;87.37;100788.75;10452270;28;20020;-71
2021/04/07 01:03:12;;;;;;;0.20;0.20;;;;;;;0.20;86.55;100784.19;10452267;28;20024;-71
2021/04/07 01:08:13;;;;;;;0.10;0.10;;;;;;;0.15;86.35;100791.50;10481405;28;20019;-70
2021/04/07 01:13:13;;;;;;;0.20;0.20;;;;;;;0.12;86.78;100783.81;10456804;28;20353;-71
2021/04/07 01:18:13;;;;;;;0.15;0.15;;;;;;;0.05;87.48;100798.19;10451303;28;20017;-72
2021/04/07 01:23:14;;;;;;;0.15;0.15;;;;;;;-0.03;87.14;100789.97;10451894;28;20029;-70
2021/04/07 01:28:15;;;;;;;0.20;0.20;;;;;;;-0.12;87.59;100812.28;10459524;28;20432;-71
2021/04/07 01:33:20;;;;;;;0.20;0.20;;;;;;;-0.15;87.70;100802.00;10453962;28;20028;-71
2021/04/07 01:38:21;;;;;;;0.13;0.13;;;;;;;-0.10;88.11;100799.13;10491302;28;20161;-71
2021/04/07 01:43:23;;;;;;;0.10;0.10;;;;;;;-0.07;87.23;100805.03;10467914;28;20472;-71
2021/04/07 01:48:24;;;;;;;0.20;0.20;;;;;;;-0.08;87.42;100802.50;10466241;28;20268;-72
2021/04/07 01:53:25;;;;;;;0.17;0.17;;;;;;;-0.16;87.64;100795.09;10491820;28;20022;-71
2021/04/07 01:58:26;;;;;;;0.10;0.10;;;;;;;-0.24;87.83;100794.69;10452535;28;20596;-72
2021/04/07 02:03:26;;;;;;;0.13;0.13;;;;;;;-0.32;89.10;100791.69;10486190;28;20020;-72
2021/04/07 02:08:26;;;;;;;0.10;0.10;;;;;;;-0.31;89.57;100794.22;10472642;28;20279;-72
2021/04/07 02:13:27;;;;;;;0.20;0.20;;;;;;;-0.22;89.74;100805.09;10491468;28;20028;-72
2021/04/07 02:18:27;;;;;;;0.20;0.20;;;;;;;-0.15;89.38;100806.41;10489989;28;20035;-71
2021/04/07 02:23:27;;;;;;;0.20;0.20;;;;;;;-0.14;88.62;100811.56;10490567;28;20548;-72
2021/04/07 02:28:27;;;;;;;0.20;0.20;;;;;;;-0.18;88.81;100804.81;10451506;28;20495;-71
2021/04/07 02:33:28;;;;;;;0.10;0.10;;;;;;;-0.26;88.67;100800.06;10452422;28;20270;-72
2021/04/07 02:38:28;;;;;;;0.20;0.20;;;;;;;-0.31;88.77;100802.09;10448931;28;20029;-72
2021/04/07 02:43:29;;;;;;;0.20;0.20;;;;;;;-0.36;88.65;100805.91;10447941;28;20029;-73
2021/04/07 02:48:29;;;;;;;0.20;0.20;;;;;;;-0.37;88.85;100802.44;10448566;28;20613;-72
2021/04/07 02:53:29;;;;;;;0.20;0.20;;;;;;;-0.43;89.32;100797.56;10449188;28;20259;-72
2021/04/07 02:58:29;;;;;;;0.10;0.10;;;;;;;-0.47;89.58;100804.78;10448291;28;20257;-72
2021/04/07 03:03:30;;;;;;;0.10;0.10;;;;;;;-0.47;89.21;100806.50;10448952;28;20628;-72
2021/04/07 03:08:30;;;;;;;0.20;0.20;;;;;;;-0.48;88.88;100808.28;10451608;28;20387;-72
2021/04/07 03:13:30;;;;;;;0.10;0.10;;;;;;;-0.54;89.51;100815.66;10448114;28;20259;-72
2021/04/07 03:18:31;;;;;;;0.00;0.00;;;;;;;-0.60;89.39;100819.47;10448281;28;20265;-72
2021/04/07 03:23:31;;;;;;;0.10;0.10;;;;;;;-0.68;89.60;100822.53;10447250;28;20294;-72
2021/04/07 03:28:31;;;;;;;0.20;0.20;;;;;;;-0.74;89.40;100827.25;10449157;28;20025;-71
2021/04/07 03:33:34;;;;;;;0.03;0.03;;;;;;;-0.85;89.86;100827.84;10455961;28;20017;-72
2021/04/07 03:38:34;;;;;;;0.20;0.20;;;;;;;-0.94;89.82;100823.16;10470601;28;20301;-72
2021/04/07 03:43:35;;;;;;;0.20;0.20;;;;;;;-1.04;90.17;100832.44;10464426;28;20036;-71
2021/04/07 03:48:35;;;;;;;0.17;0.17;;;;;;;-1.09;91.00;100831.84;10436886;28;20055;-72
2021/04/07 03:53:36;;;;;;;0.10;0.10;;;;;;;-1.12;90.61;100826.78;10456760;28;20292;-72
2021/04/07 03:58:36;;;;;;;0.10;0.10;;;;;;;-1.17;90.43;100837.47;10433036;28;20032;-72
2021/04/07 04:03:37;;;;;;;0.13;0.13;;;;;;;-1.18;90.56;100833.19;10460388;28;20287;-72
2021/04/07 04:08:37;;;;;;;0.20;0.20;;;;;;;-1.20;90.26;100845.50;10454318;28;20105;-71
2021/04/07 04:13:37;;;;;;;0.10;0.10;;;;;;;-1.27;90.85;100836.31;10483030;28;20391;-71
2021/04/07 04:18:39;;;;;;;0.10;0.10;;;;;;;-1.30;90.50;100846.94;10494636;28;20278;-72
2021/04/07 04:23:42;;;;;;;0.10;0.10;;;;;;;-1.30;90.77;100847.78;10458219;28;20579;-72
2021/04/07 04:28:43;;;;;;;0.10;0.10;;;;;;;-1.33;90.95;100853.16;10451486;28;20147;-71
2021/04/07 04:33:43;;;;;;;0.10;0.10;;;;;;;-1.34;91.54;100855.84;10454409;28;20021;-71
2021/04/07 04:38:43;;;;;;;0.10;0.10;;;;;;;-1.32;91.43;100851.38;10454151;28;20268;-71
2021/04/07 04:43:44;;;;;;;0.20;0.20;;;;;;;-1.29;91.52;100864.28;10435721;28;20208;-71
2021/04/07 04:48:44;;;;;;;0.20;0.20;;;;;;;-1.28;91.65;100861.59;10451607;28;20020;-71
2021/04/07 04:53:44;;;;;;;0.20;0.20;;;;;;;-1.24;91.89;100855.28;10455532;28;20317;-71
2021/04/07 04:58:45;;;;;;;0.20;0.20;;;;;;;-1.18;91.73;100867.16;10453359;28;20436;-70
2021/04/07 05:03:45;;;;;;;0.10;0.10;;;;;;;-1.00;91.62;100870.56;10453772;28;20033;-70
2021/04/07 05:08:46;;;;;;;0.20;0.20;;;;;;;-0.25;90.63;100874.19;10453143;28;20025;-71
2021/04/07 05:13:46;;;;;;;0.10;0.10;;;;;;;0.86;86.18;100871.84;10452774;28;20016;-73
2021/04/07 05:18:47;;;;;;;0.20;0.20;;;;;;;1.13;83.80;100877.16;10447813;28;20013;-72
2021/04/07 05:23:47;;;;;;;0.20;0.20;;;;;;;0.95;83.41;100877.47;10452747;28;20021;-72
2021/04/07 05:28:48;;;;;;;0.20;0.20;;;;;;;0.65;85.18;100881.06;10451653;28;20100;-71
2021/04/07 05:33:48;;;;;;;0.20;0.20;;;;;;;0.38;85.98;100878.34;10463178;22;20414;-69
2021/04/07 05:38:50;;;;;;;0.20;0.20;;;;;;;0.08;87.39;100878.38;10425694;28;20021;-69
2021/04/07 05:43:50;;;;;;;0.10;0.10;;;;;;;-0.06;88.34;100895.75;10434212;28;20017;-69
2021/04/07 05:48:50;;;;;;;0.20;0.20;;;;;;;-0.05;88.85;100900.06;10426579;28;20042;-70
2021/04/07 05:53:51;;;;;;;0.10;0.10;;;;;;;-0.08;88.68;100892.38;10433651;28;20294;-69
2021/04/07 05:58:51;;;;;;;0.10;0.10;;;;;;;0.20;87.93;100902.09;10430617;28;20036;-69
2021/04/07 06:03:52;;;;;;;0.10;0.10;;;;;;;0.26;87.88;100894.78;10433422;28;20037;-69
2021/04/07 06:08:52;;;;;;;0.10;0.10;;;;;;;0.56;86.75;100906.03;10451354;28;20119;-69
2021/04/07 06:13:53;;;;;;;0.10;0.10;;;;;;;0.60;86.79;100914.56;10447956;28;20013;-70
2021/04/07 06:18:53;;;;;;;0.17;0.17;;;;;;;0.60;86.39;100920.63;10421193;28;20029;-70
2021/04/07 06:23:53;;;;;;;0.17;0.17;;;;;;;0.72;86.67;100921.66;10427931;28;20108;-70
2021/04/07 06:28:54;;;;;;;0.20;0.20;;;;;;;0.78;86.50;100929.16;10441047;28;20024;-70
2021/04/07 06:33:54;;;;;;;0.17;0.17;;;;;;;0.74;86.12;100935.53;10435316;28;20086;-70
2021/04/07 06:38:54;;;;;;;0.20;0.20;;;;;;;0.72;86.61;100941.81;10444164;28;20036;-70
2021/04/07 06:43:56;;;;;;;0.20;0.20;;;;;;;0.86;85.69;100940.03;10448959;28;20048;-70
2021/04/07 06:48:58;;;;;;;0.20;0.20;;;;;;;0.73;85.84;100928.63;10421042;28;20041;-70
2021/04/07 06:53:58;;;;;;;0.20;0.20;;;;;;;0.73;86.06;100938.25;10411957;28;20045;-70
2021/04/07 06:58:58;;;;;;;0.20;0.20;;;;;;;0.80;86.40;100934.31;10427097;28;20052;-70
2021/04/07 07:03:59;;;;;;;0.10;0.10;;;;;;;1.19;85.13;100928.38;10436733;28;20032;-69
2021/04/07 07:08:59;;;;;;;0.20;0.20;;;;;;;1.46;84.11;100930.22;10426474;28;20032;-69
2021/04/07 07:14:00;;;;;;;0.20;0.20;;;;;;;1.62;83.96;100938.78;10415598;28;20140;-69
2021/04/07 07:19:00;;;;;;;0.10;0.10;;;;;;;1.73;83.58;100928.44;10417182;28;20018;-69
2021/04/07 07:24:00;;;;;;;0.20;0.20;;;;;;;1.53;83.76;100929.72;10421919;28;20180;-69
2021/04/07 07:29:07;;;;;;;0.17;0.17;;;;;;;1.56;84.39;100936.56;10450374;28;20271;-68
2021/04/07 07:34:08;;;;;;;0.10;0.10;;;;;;;1.83;83.37;100933.91;10431032;28;20306;-68
2021/04/07 07:39:08;;;;;;;0.17;0.17;;;;;;;1.92;83.39;100932.47;10440296;28;20056;-68
2021/04/07 07:44:08;;;;;;;0.10;0.10;;;;;;;1.79;83.54;100941.16;10444549;28;20303;-68
2021/04/07 07:49:17;;;;;;;0.20;0.20;;;;;;;1.83;84.56;100952.28;10433965;28;20034;-68
2021/04/07 07:54:19;;;;;;;0.20;0.20;;;;;;;1.83;83.91;100946.22;10454336;28;20252;-68
2021/04/07 07:59:30;;;;;;;0.10;0.10;;;;;;;1.83;84.90;100954.91;10441947;28;20033;-68
2021/04/07 08:04:31;;;;;;;0.10;0.10;;;;;;;1.96;84.97;100949.72;10421535;28;20034;-66
2021/04/07 08:09:31;;;;;;;0.00;0.00;;;;;;;2.14;84.60;100952.91;10429126;28;20025;-67
2021/04/07 08:14:31;;;;;;;0.20;0.20;;;;;;;2.29;84.51;100954.53;10422431;28;20413;-67
2021/04/07 08:19:35;;;;;;;0.17;0.17;;;;;;;2.29;84.63;100954.53;10420635;28;20483;-66
2021/04/07 08:24:35;;;;;;;0.20;0.20;;;;;;;2.31;85.06;100955.28;10453444;28;20426;-67
2021/04/07 08:29:36;;;;;;;0.20;0.20;;;;;;;2.55;83.93;100960.66;10455745;28;20037;-67
2021/04/07 08:34:39;;;;;;;0.15;0.15;;;;;;;2.64;84.09;100967.91;10455846;28;20668;-66
2021/04/07 08:39:43;;;;;;;0.20;0.20;;;;;;;2.53;83.75;100959.94;10455371;28;20025;-66
2021/04/07 08:44:45;;;;;;;0.10;0.10;;;;;;;2.56;84.83;100958.84;10453886;28;20104;-66
2021/04/07 08:49:45;;;;;;;0.20;0.20;;;;;;;2.46;84.28;100967.38;10454845;28;20283;-66
2021/04/07 08:54:51;;;;;;;0.10;0.10;;;;;;;2.59;84.91;100972.66;10454958;28;20314;-66
2021/04/07 08:59:53;;;;;;;0.20;0.20;;;;;;;2.80;84.17;100974.78;10454378;28;20119;-68
2021/04/07 09:05:05;;;;;;;0.10;0.10;;;;;;;2.86;84.35;100979.59;10438006;28;20091;-68
2021/04/07 09:10:10;;;;;;;0.10;0.10;;;;;;;2.92;84.86;100976.56;10453843;28;20032;-68
2021/04/07 09:15:20;;;;;;;0.10;0.10;;;;;;;3.08;84.72;100979.78;10453923;28;20025;-68
2021/04/07 09:20:33;;;;;;;0.20;0.20;;;;;;;3.15;84.13;100981.06;10468569;28;20476;-69
2021/04/07 09:25:35;;;;;;;0.20;0.20;;;;;;;3.38;83.36;100984.69;10453109;28;20396;-69
2021/04/07 09:30:45;;;;;;;0.22;0.22;;;;;;;3.71;82.64;100977.13;10453143;28;20032;-69
2021/04/07 09:35:58;;;;;;;0.13;0.13;;;;;;;4.22;80.53;100972.44;10464068;28;20047;-68
2021/04/07 09:41:07;;;;;;;0.10;0.10;;;;;;;4.87;79.08;100964.91;10452425;28;20024;-69
2021/04/07 09:46:07;;;;;;;0.10;0.10;;;;;;;5.19;76.26;100959.75;10451688;28;20057;-70
2021/04/07 09:51:28;;;;;;;0.00;0.00;;;;;;;5.93;75.95;100962.63;10451179;28;20052;-69
2021/04/07 09:56:28;;;;;;;0.00;0.00;;;;;;;6.12;73.63;100949.56;10448323;28;20029;-69
2021/04/07 10:01:37;;;;;;;0.00;0.00;;;;;;;6.10;74.07;100950.66;10451928;28;20025;-69
2021/04/07 10:06:40;;;;;;;0.00;0.00;;;;;;;5.43;74.92;100944.59;10438865;28;20021;-69
2021/04/07 10:11:42;;;;;;;0.10;0.10;;;;;;;5.08;76.98;100947.38;10417071;28;20041;-69
2021/04/07 10:16:42;;;;;;;0.10;0.10;;;;;;;4.93;77.31;100938.88;10419138;28;20068;-69
2021/04/07 10:21:44;;;;;;;0.03;0.03;;;;;;;4.84;80.11;100955.44;10409881;28;20055;-70
2021/04/07 10:26:45;;;;;;;0.10;0.10;;;;;;;4.96;80.85;100941.28;10422117;28;20021;-69
2021/04/07 10:31:55;;;;;;;0.00;0.00;;;;;;;4.98;80.12;100947.28;10409397;28;20500;-69
2021/04/07 10:36:56;;;;;;;0.00;0.00;;;;;;;5.02;81.13;100955.78;10409488;28;20029;-70
2021/04/07 10:41:56;;;;;;;0.00;0.00;;;;;;;5.28;79.60;100947.63;10409165;28;20029;-69
2021/04/07 10:46:57;;;;;;;0.10;0.10;;;;;;;5.08;81.10;100950.03;10424650;28;20078;-70
2021/04/07 10:52:07;;;;;;;0.03;0.03;;;;;;;5.14;81.72;100954.00;10435550;28;20029;-69
2021/04/07 10:57:09;;;;;;;0.05;0.05;;;;;;;5.11;83.46;100964.78;10454530;28;20384;-69
2021/04/07 11:02:14;;;;;;;0.00;0.00;;;;;;;5.07;82.90;100969.47;10449984;28;20032;-68
2021/04/07 11:07:17;;;;;;;0.00;0.00;;;;;;;5.40;83.44;100973.06;10434049;28;20031;-69
2021/04/07 11:12:21;;;;;;;0.00;0.00;;;;;;;6.02;82.46;100974.25;10432759;28;20563;-68
2021/04/07 11:17:22;;;;;;;0.00;0.00;;;;;;;6.63;80.66;100969.13;10430309;28;20033;-68
2021/04/07 11:22:22;;;;;;;0.00;0.00;;;;;;;6.71;77.76;100976.44;10424005;28;20064;-69
2021/04/07 11:27:22;;;;;;;0.00;0.00;;;;;;;6.65;78.18;100976.94;10439545;28;20029;-69
2021/04/07 11:32:23;;;;;;;0.00;0.00;;;;;;;6.62;78.05;100982.50;10428643;28;20021;-70
2021/04/07 11:43:21;;;;;;;0.00;0.00;;;;;;;5.61;80.58;101007.50;10462257;28;20040;-69
2021/04/07 11:47:53;;;;;;;0.10;0.10;;;;;;;5.43;81.75;100991.31;10445522;28;20658;-69
2021/04/07 11:52:54;;;;;;;0.00;0.00;;;;;;;5.57;82.47;100985.75;10480065;28;20099;-69
2021/04/07 11:57:54;;;;;;;0.00;0.00;;;;;;;6.04;82.76;100974.97;10486447;28;20036;-70
2021/04/07 12:02:56;;;;;;;0.00;0.00;;;;;;;6.55;81.46;100976.91;10455064;28;20021;-67
2021/04/07 12:07:57;;;;;;;0.00;0.00;;;;;;;6.75;79.03;100976.03;10443979;28;20111;-70
2021/04/07 12:12:57;;;;;;;0.00;0.00;;;;;;;6.94;78.22;100977.09;10444944;28;20104;-68
2021/04/07 12:17:57;;;;;;;0.00;0.00;;;;;;;6.79;76.05;100969.50;10481718;28;20019;-70
2021/04/07 12:23:00;;;;;;;0.00;0.00;;;;;;;6.45;77.09;100970.69;10477429;28;20067;-70
2021/04/07 12:28:00;;;;;;;0.00;0.00;;;;;;;6.19;77.79;100973.69;10439487;28;20033;-70
2021/04/07 12:33:00;;;;;;;0.00;0.00;;;;;;;6.54;77.88;100962.84;10479899;28;20419;-70
2021/04/07 12:38:01;;;;;;;0.03;0.03;;;;;;;6.95;73.95;100970.84;10464897;28;20037;-70
2021/04/07 12:43:01;;;;;;;0.00;0.00;;;;;;;7.30;70.70;100981.03;10479298;28;20021;-70
2021/04/07 12:48:01;;;;;;;0.00;0.00;;;;;;;6.87;69.83;100981.28;10494578;28;20025;-69
2021/04/07 12:53:03;;;;;;;0.00;0.00;;;;;;;6.78;73.38;100986.38;10463903;28;20395;-70
2021/04/07 12:58:04;;;;;;;0.00;0.00;;;;;;;7.35;71.07;100964.72;10452801;28;20116;-70
2021/04/07 13:03:04;;;;;;;0.00;0.00;;;;;;;6.85;67.91;100970.78;10433954;28;20171;-69
2021/04/07 13:08:05;;;;;;;0.00;0.00;;;;;;;6.63;70.42;100976.22;10463347;28;20503;-69
2021/04/07 13:13:05;;;;;;;0.03;0.03;;;;;;;7.09;71.27;100983.72;10492723;28;20052;-70
2021/04/07 13:18:07;;;;;;;0.00;0.00;;;;;;;7.06;67.91;101001.69;10472363;28;20107;-70
2021/04/07 13:23:07;;;;;;;0.00;0.00;;;;;;;6.83;68.52;101011.59;10451647;28;20468;-69
2021/04/07 13:28:10;;;;;;;0.00;0.00;;;;;;;6.77;70.65;101007.66;10433693;28;20021;-69
2021/04/07 13:33:17;;;;;;;0.00;0.00;;;;;;;6.68;68.67;101006.63;10451973;28;20421;-69
2021/04/07 13:38:33;;;;;;;0.00;0.00;;;;;;;6.50;67.09;101016.13;10463793;28;20537;-69
2021/04/07 13:43:33;;;;;;;0.00;0.00;;;;;;;6.58;70.63;101024.28;10492200;28;20024;-69
2021/04/07 13:48:33;;;;;;;0.00;0.00;;;;;;;6.82;67.68;101021.38;10482947;28;20359;-69
2021/04/07 13:53:34;;;;;;;0.00;0.00;;;;;;;6.80;68.07;101032.06;10477135;28;20384;-68
2021/04/07 13:58:34;;;;;;;0.10;0.10;;;;;;;7.18;66.87;101012.06;10489767;28;20531;-68
2021/04/07 14:03:34;;;;;;;0.00;0.00;;;;;;;7.35;66.84;101012.41;10471822;28;20040;-68
2021/04/07 14:08:36;;;;;;;0.00;0.00;;;;;;;7.20;67.91;101007.47;10474376;28;20029;-67
2021/04/07 14:13:39;;;;;;;0.00;0.00;;;;;;;6.63;70.31;101043.22;10491437;28;20023;-66
2021/04/07 14:18:40;;;;;;;0.00;0.00;;;;;;;6.42;69.72;101056.44;10487628;28;20052;-67
2021/04/07 14:23:40;;;;;;;0.10;0.10;;;;;;;6.39;70.53;101063.81;10471188;28;20024;-67
2021/04/07 14:28:40;;;;;;;0.00;0.00;;;;;;;6.29;69.88;101055.78;10451229;28;20272;-67
2021/04/07 14:33:41;;;;;;;0.00;0.00;;;;;;;6.26;69.58;101058.69;10490134;28;20267;-67
2021/04/07 14:38:41;;;;;;;0.00;0.00;;;;;;;6.13;70.82;101069.41;10490931;28;20278;-66
2021/04/07 14:43:41;;;;;;;0.00;0.00;;;;;;;6.03;72.51;101079.06;10457805;28;20021;-67
2021/04/07 14:48:42;;;;;;;0.00;0.00;;;;;;;6.26;72.40;101079.84;10458396;28;20346;-67
2021/04/07 14:53:43;;;;;;;0.00;0.00;;;;;;;6.05;73.56;101082.41;10450438;28;20267;-67
2021/04/07 14:58:44;;;;;;;0.00;0.00;;;;;;;5.82;72.92;101078.97;10431636;28;20033;-67
2021/04/07 15:03:45;;;;;;;0.05;0.05;;;;;;;5.72;72.21;101089.41;10457264;28;20016;-67
2021/04/07 15:08:46;;;;;;;0.03;0.03;;;;;;;5.17;75.57;101098.97;10431710;28;20087;-66
2021/04/07 15:13:46;;;;;;;0.10;0.10;;;;;;;5.09;78.20;101114.56;10481752;28;20013;-67
2021/04/07 15:18:47;;;;;;;0.00;0.00;;;;;;;5.20;75.89;101109.31;10469250;28;20036;-67
2021/04/07 15:23:47;;;;;;;0.00;0.00;;;;;;;5.02;76.25;101108.91;10490283;28;20025;-67
2021/04/07 15:28:49;;;;;;;0.10;0.10;;;;;;;4.99;76.67;101117.91;10476142;28;20035;-67
2021/04/07 15:33:52;;;;;;;0.00;0.00;;;;;;;5.25;74.84;101112.44;10459204;28;20483;-67
2021/04/07 15:38:54;;;;;;;0.05;0.05;;;;;;;5.12;72.01;101132.81;10455484;28;20056;-67
2021/04/07 15:43:54;;;;;;;0.00;0.00;;;;;;;4.85;74.98;101131.31;10455915;28;20531;-67
2021/04/07 15:48:54;;;;;;;0.00;0.00;;;;;;;4.65;76.34;101140.69;10458488;28;20107;-67
2021/04/07 15:53:56;;;;;;;0.15;0.15;;;;;;;4.52;77.27;101143.41;10458344;28;20496;-68
2021/04/07 15:58:56;;;;;;;0.10;0.10;;;;;;;4.57;77.10;101137.81;10480961;28;20095;-67
2021/04/07 16:03:56;;;;;;;0.10;0.10;;;;;;;4.70;75.70;101145.66;10485522;28;20033;-68
2021/04/07 16:08:57;;;;;;;0.00;0.00;;;;;;;3.89;78.73;101173.41;10458485;28;20302;-68
2021/04/07 16:13:57;;;;;;;0.00;0.00;;;;;;;3.24;83.25;101199.88;10455465;28;20013;-68
2021/04/07 16:18:57;;;;;;;0.03;0.03;;;;;;;3.05;83.29;101202.88;10492350;28;20267;-69
2021/04/07 16:23:58;;;;;;;0.10;0.10;;;;;;;2.97;82.41;101198.13;10494597;28;20282;-68
2021/04/07 16:28:59;;;;;;;0.10;0.10;;;;;;;2.82;84.45;101215.75;10498419;28;20081;-68
2021/04/07 16:34:00;;;;;;;0.20;0.20;;;;;;;2.86;84.73;101216.41;10490251;28;20375;-68
2021/04/07 16:39:00;;;;;;;0.10;0.10;;;;;;;2.94;84.90;101212.31;10495592;28;20031;-68
2021/04/07 16:44:01;;;;;;;0.10;0.10;;;;;;;3.12;84.00;101202.38;10496192;28;20029;-68
2021/04/07 16:49:03;;;;;;;0.10;0.10;;;;;;;3.17;84.26;101218.72;10496077;28;20577;-68
2021/04/07 16:54:03;;;;;;;0.13;0.13;;;;;;;3.13;84.70;101227.72;10494778;28;20029;-68
2021/04/07 16:59:03;;;;;;;0.10;0.10;;;;;;;3.09;84.50;101235.94;10495794;28;20024;-68
2021/04/07 17:04:04;;;;;;;0.10;0.10;;;;;;;3.13;84.13;101237.44;10495955;28;20104;-68
2021/04/07 17:09:05;;;;;;;0.05;0.05;;;;;;;3.40;77.28;101245.28;10494893;28;20385;-68
2021/04/07 17:14:06;;;;;;;0.15;0.15;;;;;;;3.56;76.33;101259.13;10495260;28;20055;-68
2021/04/07 17:19:06;;;;;;;0.13;0.13;;;;;;;3.62;74.89;101263.97;10476313;28;20020;-68
2021/04/07 17:24:07;;;;;;;0.10;0.10;;;;;;;3.61;74.45;101259.66;10493409;28;20025;-68
2021/04/07 17:29:08;;;;;;;0.13;0.13;;;;;;;3.61;75.74;101274.63;10476203;28;20068;-68
2021/04/07 17:34:08;;;;;;;0.10;0.10;;;;;;;3.58;75.32;101264.28;10494442;28;20475;-68
2021/04/07 17:39:09;;;;;;;0.10;0.10;;;;;;;3.51;75.25;101276.16;10465978;22;20152;-73
2021/04/07 17:44:09;;;;;;;0.13;0.13;;;;;;;3.39;76.17;101269.94;10453217;28;20070;-72
2021/04/07 17:49:09;;;;;;;0.10;0.10;;;;;;;3.32;78.32;101273.94;10452521;28;20032;-74
2021/04/07 17:54:10;;;;;;;0.20;0.20;;;;;;;3.14;78.53;101303.16;10452842;28;20021;-73
2021/04/07 17:59:10;;;;;;;0.20;0.20;;;;;;;3.05;78.31;101293.19;10452785;28;20071;-73
2021/04/07 18:04:10;;;;;;;0.10;0.10;;;;;;;3.06;77.51;101305.44;10452371;28;20025;-74
2021/04/07 18:09:11;;;;;;;0.20;0.20;;;;;;;3.11;78.21;101318.28;10452396;28;20029;-73
2021/04/07 18:14:11;;;;;;;0.10;0.10;;;;;;;2.93;76.56;101330.81;10452320;28;20021;-73
2021/04/07 18:19:11;;;;;;;0.17;0.17;;;;;;;2.85;74.27;101312.03;10451830;28;20033;-74
2021/04/07 18:24:12;;;;;;;0.10;0.10;;;;;;;2.86;75.25;101313.75;10452017;28;20287;-73
2021/04/07 18:29:12;;;;;;;0.10;0.10;;;;;;;2.79;76.21;101318.53;10451611;28;20029;-73
2021/04/07 18:34:12;;;;;;;0.10;0.10;;;;;;;2.72;74.98;101328.59;10468078;28;20391;-73
2021/04/07 18:39:12;;;;;;;0.10;0.10;;;;;;;2.71;75.11;101326.94;10451178;28;20033;-73
2021/04/07 18:44:13;;;;;;;0.10;0.10;;;;;;;2.63;76.16;101341.50;10451454;28;20041;-73
2021/04/07 18:49:14;;;;;;;0.20;0.20;;;;;;;2.52;76.02;101347.41;10451227;28;20104;-73
2021/04/07 18:54:15;;;;;;;0.10;0.10;;;;;;;2.46;76.85;101353.06;10451113;28;20087;-73
2021/04/07 18:59:15;;;;;;;0.10;0.10;;;;;;;2.42;77.21;101355.03;10446311;28;20274;-73
2021/04/07 19:04:16;;;;;;;0.20;0.20;;;;;;;2.51;76.43;101355.41;10446974;28;20386;-73
2021/04/07 19:09:16;;;;;;;0.20;0.20;;;;;;;2.61;76.52;101364.41;10474219;28;20288;-73
2021/04/07 19:14:16;;;;;;;0.10;0.10;;;;;;;2.60;76.85;101363.56;10459321;28;20032;-73
2021/04/07 19:19:17;;;;;;;0.20;0.20;;;;;;;2.50;77.27;101370.31;10458840;28;20255;-73
2021/04/07 19:24:18;;;;;;;0.20;0.20;;;;;;;2.41;78.45;101378.78;10458847;28;20319;-73
2021/04/07 19:29:18;;;;;;;0.10;0.10;;;;;;;2.40;79.29;101379.72;10458759;28;20044;-73
2021/04/07 19:34:20;;;;;;;0.20;0.20;;;;;;;2.32;79.45;101381.97;10458686;28;20104;-73
2021/04/07 19:39:20;;;;;;;0.20;0.20;;;;;;;2.24;79.02;101380.66;10457644;28;20044;-72
2021/04/07 19:44:20;;;;;;;0.20;0.20;;;;;;;2.23;78.88;101391.25;10450589;28;20104;-73
2021/04/07 19:49:33;;;;;;;0.20;0.20;;;;;;;2.18;79.04;101402.06;10469057;28;20388;-73
2021/04/07 19:54:34;;;;;;;0.10;0.10;;;;;;;2.15;78.89;101402.22;10417467;28;20264;-73
2021/04/07 19:59:34;;;;;;;0.10;0.10;;;;;;;2.09;78.86;101404.34;10417252;28;20365;-73
2021/04/07 20:04:34;;;;;;;0.03;0.03;;;;;;;2.00;79.76;101414.47;10417009;28;20291;-73
2021/04/07 20:09:34;;;;;;;0.20;0.20;;;;;;;2.11;79.53;101403.34;10418246;28;20025;-73
2021/04/07 20:14:35;;;;;;;0.20;0.20;;;;;;;2.24;80.81;101408.69;10458158;28;20108;-73
2021/04/07 20:19:35;;;;;;;0.10;0.10;;;;;;;2.17;83.82;101416.09;10473452;28;20025;-73
2021/04/07 20:24:36;;;;;;;0.20;0.20;;;;;;;1.97;83.81;101429.56;10457370;28;20031;-73
2021/04/07 20:29:36;;;;;;;0.10;0.10;;;;;;;1.87;85.15;101433.69;10456474;28;20032;-73
2021/04/07 20:34:36;;;;;;;0.10;0.10;;;;;;;1.76;86.06;101484.19;10441847;28;20365;-69
2021/04/07 20:39:37;;;;;;;0.13;0.13;;;;;;;1.47;87.94;101441.19;10437136;28;20123;-71
2021/04/07 20:44:37;;;;;;;0.10;0.10;;;;;;;1.41;87.99;101441.53;10449661;28;20033;-71
2021/04/07 20:49:38;;;;;;;0.20;0.20;;;;;;;1.34;88.21;101448.91;10429396;28;20013;-70
2021/04/07 20:54:38;;;;;;;0.20;0.20;;;;;;;1.29;88.39;101453.53;10429763;28;20024;-71
2021/04/07 20:59:38;;;;;;;0.10;0.10;;;;;;;1.21;87.98;101471.47;10442778;28;20094;-70
2021/04/07 21:04:38;;;;;;;0.20;0.20;;;;;;;1.06;88.68;101463.50;10435042;28;20755;-70
2021/04/07 21:09:39;;;;;;;0.20;0.20;;;;;;;0.91;89.05;101464.34;10413040;28;20078;-70
2021/04/07 21:14:40;;;;;;;0.20;0.20;;;;;;;0.83;89.63;101477.00;10425235;28;20060;-71
2021/04/07 21:19:41;;;;;;;0.20;0.20;;;;;;;0.80;89.33;101487.66;10443951;28;20272;-71
2021/04/07 21:24:41;;;;;;;0.20;0.20;;;;;;;0.85;89.10;101493.50;10444400;28;20067;-71
2021/04/07 21:29:41;;;;;;;0.10;0.10;;;;;;;0.85;88.69;101502.22;10434124;28;20021;-69
2021/04/07 21:34:42;;;;;;;0.10;0.10;;;;;;;0.82;89.01;101494.50;10438387;28;20025;-69
2021/04/07 21:39:42;;;;;;;0.20;0.20;;;;;;;0.75;88.69;101503.59;10432797;28;20280;-69
2021/04/07 21:44:43;;;;;;;0.10;0.10;;;;;;;0.72;89.26;101510.78;10434688;28;20131;-69
2021/04/07 21:49:43;;;;;;;0.20;0.20;;;;;;;0.68;89.46;101510.94;10452435;28;20272;-69
2021/04/07 21:54:43;;;;;;;0.20;0.20;;;;;;;0.68;89.26;101528.47;10452534;28;20296;-70
2021/04/07 21:59:43;;;;;;;0.20;0.20;;;;;;;0.76;89.06;101530.72;10436590;28;20025;-70
2021/04/07 22:04:44;;;;;;;0.20;0.20;;;;;;;0.71;89.14;101538.78;10432319;28;20028;-70
2021/04/07 22:09:44;;;;;;;0.20;0.20;;;;;;;0.66;89.86;101532.94;10434420;28;20032;-71
2021/04/07 22:14:45;;;;;;;0.10;0.10;;;;;;;0.66;90.16;101539.00;10421778;28;20659;-70
2021/04/07 22:19:45;;;;;;;0.20;0.20;;;;;;;0.78;89.75;101541.94;10439177;28;20255;-72
2021/04/07 22:24:46;;;;;;;0.20;0.20;;;;;;;0.93;88.85;101548.16;10441545;28;20021;-71
2021/04/07 22:29:46;;;;;;;0.20;0.20;;;;;;;1.04;88.29;101549.31;10450593;28;20317;-71
2021/04/07 22:34:46;;;;;;;0.20;0.20;;;;;;;1.08;87.31;101561.34;10450251;28;20025;-71
2021/04/07 22:39:46;;;;;;;0.20;0.20;;;;;;;1.11;87.62;101565.59;10444857;28;20508;-71
2021/04/07 22:44:47;;;;;;;0.10;0.10;;;;;;;1.16;86.79;101568.81;10425941;28;20386;-72
2021/04/07 22:49:47;;;;;;;0.20;0.20;;;;;;;1.18;87.00;101584.50;10409038;28;20078;-72
2021/04/07 22:54:47;;;;;;;0.20;0.20;;;;;;;1.26;86.27;101601.53;10417092;28;20115;-72
2021/04/07 22:59:48;;;;;;;0.20;0.20;;;;;;;1.43;85.63;101611.16;10450375;28;20021;-72
2021/04/07 23:04:48;;;;;;;0.10;0.10;;;;;;;1.53;86.59;101607.09;10450565;28;20040;-72
2021/04/07 23:09:48;;;;;;;0.20;0.20;;;;;;;1.61;86.73;101619.81;10448978;28;20468;-72
2021/04/07 23:14:49;;;;;;;0.20;0.20;;;;;;;1.61;86.52;101626.84;10450370;28;20392;-72
2021/04/07 23:19:49;;;;;;;0.10;0.10;;;;;;;1.56;86.55;101619.22;10449022;28;20279;-73
2021/04/07 23:24:49;;;;;;;0.20;0.20;;;;;;;1.44;86.40;101625.97;10408704;28;20022;-71